Walford, IA

6:08 AM CST on January 28, 2015 (GMT -0600)
The Eastern Iowa Airport | Change Station
CLOSE
Current Station
Airport
Location: Cedar Rapids,
Elevation: 866 ft
Nearby Weather Stations

Elev 866 ft 41.88 °N, 91.71 °W | Updated 16 minutes ago

Fog
Fog
27 °F
Feels Like 17 °F
N
12
Wind Variable Wind from SSE

Today
High -- | Low -- °F
--% Chance of Precip.
Yesterday
High -- | Low -- °F
Precip. -- in
7:24 AM 5:17 PM
Waxing Gibbous, 64% visible
Pressure 30.17 in
Visibility 1.2 miles
Clouds Overcast 200 ft
Windchill 17 °F
Dew Point 27 °F
Humidity 100%
Rainfall 0.00 in
Snow Depth Not available.
UV 0 out of 12
Pollen .10 out of 12
Air Quality Not available.
Flu Activity Not available.
METAR KCID 281152Z 15010KT 1 1/4SM BR OVC002 M03/M03 A3013 RMK AO2 SLP215 I1000 I6000 T10281028 11028 21039 57007

More Conditions Fewer Conditions

Pressure 30.17 in
Visibility 1.2 miles
Clouds Overcast 200 ft
Windchill 17 °F
Dew Point 27 °F
Humidity 100%
Rainfall 0.00 in
Snow Depth Not available.
UV 0 out of 12
Pollen .10 out of 12
Air Quality Not available.
Flu Activity Not available.
METAR KCID 281152Z 15010KT 1 1/4SM BR OVC002 M03/M03 A3013 RMK AO2 SLP215 I1000 I6000 T10281028 11028 21039 57007

More Conditions Fewer Conditions

10-Day Weather Forecast

Almanac

Astronomy

Jan. 28, 2015 Rise Set
Actual Time
Civil Twilight
Nautical Twilight
Astronomical Twilight
Moon
Length of Visible Light
Length of Day
Tomorrow will be .
, % of the Moon is Illuminated

Today's Extremes

State Highs State Lows

Community

WunderPhotos

Upload Photos

1,791,127 photos uploaded!

WunderBlogs® & News

Nearby

Air Quality

  Air Quality AQ Index Pollutant
Not available.

Snow Depth

Station Depth Elevation

Earthquake Activity

City Distance Mag. Time & Date
Minimum magnitude displayed is 2.5.

Coastal Water Temperatures

Place Temperature

Nearby Weather Stations